sensor_id;sensor_type;location;lat;lon;timestamp;temperature;humidity
52187;DHT22;38161;53.020;6.598;2023-03-03T00:01:40;1.60;99.90
52187;DHT22;38161;53.020;6.598;2023-03-03T00:04:06;1.60;99.90
52187;DHT22;38161;53.020;6.598;2023-03-03T00:06:32;1.60;99.90
52187;DHT22;38161;53.020;6.598;2023-03-03T00:08:58;1.60;99.90
52187;DHT22;38161;53.020;6.598;2023-03-03T00:11:23;1.60;99.90
52187;DHT22;38161;53.020;6.598;2023-03-03T00:13:52;1.70;99.90
52187;DHT22;38161;53.020;6.598;2023-03-03T00:18:55;1.70;99.90
52187;DHT22;38161;53.020;6.598;2023-03-03T00:21:26;1.70;99.90
52187;DHT22;38161;53.020;6.598;2023-03-03T00:23:58;1.70;99.90
52187;DHT22;38161;53.020;6.598;2023-03-03T00:26:35;1.70;99.90
52187;DHT22;38161;53.020;6.598;2023-03-03T00:29:02;1.70;99.90
52187;DHT22;38161;53.020;6.598;2023-03-03T00:31:44;1.70;99.90
52187;DHT22;38161;53.020;6.598;2023-03-03T00:36:42;1.70;99.90
52187;DHT22;38161;53.020;6.598;2023-03-03T00:41:56;1.70;99.90
52187;DHT22;38161;53.020;6.598;2023-03-03T00:47:30;1.70;99.90
52187;DHT22;38161;53.020;6.598;2023-03-03T00:55:02;1.70;99.90
52187;DHT22;38161;53.020;6.598;2023-03-03T00:57:28;1.70;99.90
52187;DHT22;38161;53.020;6.598;2023-03-03T00:59:55;1.80;99.90
52187;DHT22;38161;53.020;6.598;2023-03-03T01:02:20;1.70;99.90
52187;DHT22;38161;53.020;6.598;2023-03-03T01:04:50;1.80;99.90
52187;DHT22;38161;53.020;6.598;2023-03-03T01:07:16;1.80;99.90
52187;DHT22;38161;53.020;6.598;2023-03-03T01:09:42;1.80;99.90
52187;DHT22;38161;53.020;6.598;2023-03-03T01:12:08;1.80;99.90
52187;DHT22;38161;53.020;6.598;2023-03-03T01:14:34;1.90;99.90
52187;DHT22;38161;53.020;6.598;2023-03-03T01:16:59;1.90;99.90
52187;DHT22;38161;53.020;6.598;2023-03-03T01:19:25;1.90;99.90
52187;DHT22;38161;53.020;6.598;2023-03-03T01:21:51;1.90;99.90
52187;DHT22;38161;53.020;6.598;2023-03-03T01:24:17;1.90;99.90
52187;DHT22;38161;53.020;6.598;2023-03-03T01:26:43;1.90;99.90
52187;DHT22;38161;53.020;6.598;2023-03-03T01:29:08;1.90;99.90
52187;DHT22;38161;53.020;6.598;2023-03-03T01:31:34;1.90;99.90
52187;DHT22;38161;53.020;6.598;2023-03-03T01:34:00;1.90;99.90
52187;DHT22;38161;53.020;6.598;2023-03-03T01:36:26;1.90;99.90
52187;DHT22;38161;53.020;6.598;2023-03-03T01:38:52;1.90;99.90
52187;DHT22;38161;53.020;6.598;2023-03-03T01:41:18;1.90;99.90
52187;DHT22;38161;53.020;6.598;2023-03-03T01:43:47;1.90;99.90
52187;DHT22;38161;53.020;6.598;2023-03-03T01:49:04;1.90;99.90
52187;DHT22;38161;53.020;6.598;2023-03-03T01:51:35;2.00;99.90
52187;DHT22;38161;53.020;6.598;2023-03-03T01:54:05;2.00;99.90
52187;DHT22;38161;53.020;6.598;2023-03-03T01:56:34;2.00;99.90
52187;DHT22;38161;53.020;6.598;2023-03-03T01:59:04;2.00;99.90
52187;DHT22;38161;53.020;6.598;2023-03-03T02:01:32;2.00;99.90
52187;DHT22;38161;53.020;6.598;2023-03-03T02:03:59;2.00;99.90
52187;DHT22;38161;53.020;6.598;2023-03-03T02:06:33;2.00;99.90
52187;DHT22;38161;53.020;6.598;2023-03-03T02:09:17;2.00;99.90
52187;DHT22;38161;53.020;6.598;2023-03-03T02:11:49;2.00;99.90
52187;DHT22;38161;53.020;6.598;2023-03-03T02:14:15;2.10;99.90
52187;DHT22;38161;53.020;6.598;2023-03-03T02:16:41;2.00;99.90
52187;DHT22;38161;53.020;6.598;2023-03-03T02:19:15;2.00;99.90
52187;DHT22;38161;53.020;6.598;2023-03-03T02:21:43;2.10;99.90
52187;DHT22;38161;53.020;6.598;2023-03-03T02:24:49;2.10;99.90
52187;DHT22;38161;53.020;6.598;2023-03-03T02:27:16;2.10;99.90
52187;DHT22;38161;53.020;6.598;2023-03-03T02:29:41;2.10;99.90
52187;DHT22;38161;53.020;6.598;2023-03-03T02:32:07;2.00;99.90
52187;DHT22;38161;53.020;6.598;2023-03-03T02:34:51;2.00;99.90
52187;DHT22;38161;53.020;6.598;2023-03-03T02:37:18;2.00;99.90
52187;DHT22;38161;53.020;6.598;2023-03-03T02:39:45;2.00;99.90
52187;DHT22;38161;53.020;6.598;2023-03-03T02:44:46;2.00;99.90
52187;DHT22;38161;53.020;6.598;2023-03-03T02:47:11;2.20;99.90
52187;DHT22;38161;53.020;6.598;2023-03-03T02:49:37;2.00;99.90
52187;DHT22;38161;53.020;6.598;2023-03-03T02:52:06;2.00;99.90
52187;DHT22;38161;53.020;6.598;2023-03-03T02:54:34;2.10;99.90
52187;DHT22;38161;53.020;6.598;2023-03-03T02:57:01;2.10;99.90
52187;DHT22;38161;53.020;6.598;2023-03-03T02:59:27;2.10;99.90
52187;DHT22;38161;53.020;6.598;2023-03-03T03:01:54;2.20;99.90
52187;DHT22;38161;53.020;6.598;2023-03-03T03:04:24;2.10;99.90
52187;DHT22;38161;53.020;6.598;2023-03-03T03:06:50;2.10;99.90
52187;DHT22;38161;53.020;6.598;2023-03-03T03:09:18;2.10;99.90
52187;DHT22;38161;53.020;6.598;2023-03-03T03:11:44;2.10;99.90
52187;DHT22;38161;53.020;6.598;2023-03-03T03:14:11;2.10;99.90
52187;DHT22;38161;53.020;6.598;2023-03-03T03:16:37;2.10;99.90
52187;DHT22;38161;53.020;6.598;2023-03-03T03:19:04;2.10;99.90
52187;DHT22;38161;53.020;6.598;2023-03-03T03:21:30;2.10;99.90
52187;DHT22;38161;53.020;6.598;2023-03-03T03:23:56;2.10;99.90
52187;DHT22;38161;53.020;6.598;2023-03-03T03:26:23;2.00;99.90
52187;DHT22;38161;53.020;6.598;2023-03-03T03:28:49;2.00;99.90
52187;DHT22;38161;53.020;6.598;2023-03-03T03:31:16;2.00;99.90
52187;DHT22;38161;53.020;6.598;2023-03-03T03:33:42;2.00;99.90
52187;DHT22;38161;53.020;6.598;2023-03-03T03:36:08;1.90;99.90
52187;DHT22;38161;53.020;6.598;2023-03-03T03:38:35;1.90;99.90
52187;DHT22;38161;53.020;6.598;2023-03-03T03:41:02;1.90;99.90
52187;DHT22;38161;53.020;6.598;2023-03-03T03:43:28;1.90;99.90
52187;DHT22;38161;53.020;6.598;2023-03-03T03:45:54;1.90;99.90
52187;DHT22;38161;53.020;6.598;2023-03-03T03:48:20;1.90;99.90
52187;DHT22;38161;53.020;6.598;2023-03-03T03:50:47;2.00;99.90
52187;DHT22;38161;53.020;6.598;2023-03-03T03:53:13;2.00;99.90
52187;DHT22;38161;53.020;6.598;2023-03-03T03:55:38;1.90;99.90
52187;DHT22;38161;53.020;6.598;2023-03-03T03:58:04;2.00;99.90
52187;DHT22;38161;53.020;6.598;2023-03-03T04:00:30;1.90;99.90
52187;DHT22;38161;53.020;6.598;2023-03-03T04:02:56;1.90;99.90
52187;DHT22;38161;53.020;6.598;2023-03-03T04:05:21;1.90;99.90
52187;DHT22;38161;53.020;6.598;2023-03-03T04:07:47;1.80;99.90
52187;DHT22;38161;53.020;6.598;2023-03-03T04:10:13;1.80;99.90
52187;DHT22;38161;53.020;6.598;2023-03-03T04:12:39;1.90;99.90
52187;DHT22;38161;53.020;6.598;2023-03-03T04:15:10;1.90;99.90
52187;DHT22;38161;53.020;6.598;2023-03-03T04:17:36;1.90;99.90
52187;DHT22;38161;53.020;6.598;2023-03-03T04:20:02;1.90;99.90
52187;DHT22;38161;53.020;6.598;2023-03-03T04:22:29;1.90;99.90
52187;DHT22;38161;53.020;6.598;2023-03-03T04:24:59;1.80;99.90
52187;DHT22;38161;53.020;6.598;2023-03-03T04:27:33;1.80;99.90
52187;DHT22;38161;53.020;6.598;2023-03-03T04:30:00;1.90;99.90
52187;DHT22;38161;53.020;6.598;2023-03-03T04:32:26;1.80;99.90
52187;DHT22;38161;53.020;6.598;2023-03-03T04:34:52;1.80;99.90
52187;DHT22;38161;53.020;6.598;2023-03-03T04:37:18;1.80;99.90
52187;DHT22;38161;53.020;6.598;2023-03-03T04:39:44;1.80;99.90
52187;DHT22;38161;53.020;6.598;2023-03-03T04:42:10;1.70;99.90
52187;DHT22;38161;53.020;6.598;2023-03-03T04:44:36;1.70;99.90
52187;DHT22;38161;53.020;6.598;2023-03-03T04:47:02;1.70;99.90
52187;DHT22;38161;53.020;6.598;2023-03-03T04:49:28;1.70;99.90
52187;DHT22;38161;53.020;6.598;2023-03-03T04:51:54;1.70;99.90
52187;DHT22;38161;53.020;6.598;2023-03-03T04:54:20;1.70;99.90
52187;DHT22;38161;53.020;6.598;2023-03-03T04:56:45;1.60;99.90
52187;DHT22;38161;53.020;6.598;2023-03-03T04:59:12;1.60;99.90
52187;DHT22;38161;53.020;6.598;2023-03-03T05:01:39;1.60;99.90
52187;DHT22;38161;53.020;6.598;2023-03-03T05:04:04;1.60;99.90
52187;DHT22;38161;53.020;6.598;2023-03-03T05:06:30;1.50;99.90
52187;DHT22;38161;53.020;6.598;2023-03-03T05:08:56;1.50;99.90
52187;DHT22;38161;53.020;6.598;2023-03-03T05:11:21;1.40;99.90
52187;DHT22;38161;53.020;6.598;2023-03-03T05:13:47;1.40;99.90
52187;DHT22;38161;53.020;6.598;2023-03-03T05:16:13;1.40;99.90
52187;DHT22;38161;53.020;6.598;2023-03-03T05:18:39;1.30;99.90
52187;DHT22;38161;53.020;6.598;2023-03-03T05:21:05;1.30;99.90
52187;DHT22;38161;53.020;6.598;2023-03-03T05:23:30;1.80;99.90
52187;DHT22;38161;53.020;6.598;2023-03-03T05:25:57;1.20;99.90
52187;DHT22;38161;53.020;6.598;2023-03-03T05:28:22;1.20;99.90
52187;DHT22;38161;53.020;6.598;2023-03-03T05:30:48;1.20;99.90
52187;DHT22;38161;53.020;6.598;2023-03-03T05:33:15;1.20;99.90
52187;DHT22;38161;53.020;6.598;2023-03-03T05:35:41;1.20;99.90
52187;DHT22;38161;53.020;6.598;2023-03-03T05:38:07;1.10;99.90
52187;DHT22;38161;53.020;6.598;2023-03-03T05:40:33;1.00;99.90
52187;DHT22;38161;53.020;6.598;2023-03-03T05:42:59;1.00;99.90
52187;DHT22;38161;53.020;6.598;2023-03-03T05:45:25;1.00;99.90
52187;DHT22;38161;53.020;6.598;2023-03-03T05:47:52;1.00;99.90
52187;DHT22;38161;53.020;6.598;2023-03-03T05:50:19;1.00;99.90
52187;DHT22;38161;53.020;6.598;2023-03-03T05:52:50;1.00;99.90
52187;DHT22;38161;53.020;6.598;2023-03-03T05:55:16;0.90;99.90
52187;DHT22;38161;53.020;6.598;2023-03-03T05:57:43;0.90;99.90
52187;DHT22;38161;53.020;6.598;2023-03-03T06:00:10;0.80;99.90
52187;DHT22;38161;53.020;6.598;2023-03-03T06:02:36;0.70;99.90
52187;DHT22;38161;53.020;6.598;2023-03-03T06:05:02;0.80;99.90
52187;DHT22;38161;53.020;6.598;2023-03-03T06:07:27;0.70;99.90
52187;DHT22;38161;53.020;6.598;2023-03-03T06:09:53;0.70;99.90
52187;DHT22;38161;53.020;6.598;2023-03-03T06:12:19;0.70;99.90
52187;DHT22;38161;53.020;6.598;2023-03-03T06:14:45;0.60;99.90
52187;DHT22;38161;53.020;6.598;2023-03-03T06:17:10;0.60;99.90
52187;DHT22;38161;53.020;6.598;2023-03-03T06:19:37;0.60;99.90
52187;DHT22;38161;53.020;6.598;2023-03-03T06:22:03;0.50;99.90
52187;DHT22;38161;53.020;6.598;2023-03-03T06:24:29;0.50;99.90
52187;DHT22;38161;53.020;6.598;2023-03-03T06:26:57;0.50;99.90
52187;DHT22;38161;53.020;6.598;2023-03-03T06:29:22;0.50;99.90
52187;DHT22;38161;53.020;6.598;2023-03-03T06:31:48;0.50;99.90
52187;DHT22;38161;53.020;6.598;2023-03-03T06:34:14;0.40;99.90
52187;DHT22;38161;53.020;6.598;2023-03-03T06:36:40;0.50;99.90
52187;DHT22;38161;53.020;6.598;2023-03-03T06:39:05;0.50;99.90
52187;DHT22;38161;53.020;6.598;2023-03-03T06:41:31;0.50;99.90
52187;DHT22;38161;53.020;6.598;2023-03-03T06:43:57;0.50;99.90
52187;DHT22;38161;53.020;6.598;2023-03-03T06:46:25;0.40;99.90
52187;DHT22;38161;53.020;6.598;2023-03-03T06:48:51;0.40;99.90
52187;DHT22;38161;53.020;6.598;2023-03-03T06:51:24;0.40;99.90
52187;DHT22;38161;53.020;6.598;2023-03-03T06:53:57;0.40;99.90
52187;DHT22;38161;53.020;6.598;2023-03-03T06:56:26;0.40;99.90
52187;DHT22;38161;53.020;6.598;2023-03-03T06:58:55;0.40;99.90
52187;DHT22;38161;53.020;6.598;2023-03-03T07:01:21;0.40;99.90
52187;DHT22;38161;53.020;6.598;2023-03-03T07:03:46;0.50;99.90
52187;DHT22;38161;53.020;6.598;2023-03-03T07:06:23;0.50;99.90
52187;DHT22;38161;53.020;6.598;2023-03-03T07:08:51;0.50;99.90
52187;DHT22;38161;53.020;6.598;2023-03-03T07:11:20;0.50;99.90
52187;DHT22;38161;53.020;6.598;2023-03-03T07:13:51;0.50;99.90
52187;DHT22;38161;53.020;6.598;2023-03-03T07:16:18;0.50;99.90
52187;DHT22;38161;53.020;6.598;2023-03-03T07:18:56;0.50;99.90
52187;DHT22;38161;53.020;6.598;2023-03-03T07:21:33;0.50;99.90
52187;DHT22;38161;53.020;6.598;2023-03-03T07:24:09;0.50;99.90
52187;DHT22;38161;53.020;6.598;2023-03-03T07:26:37;0.60;99.90
52187;DHT22;38161;53.020;6.598;2023-03-03T07:29:23;0.70;99.90
52187;DHT22;38161;53.020;6.598;2023-03-03T07:31:50;0.70;99.90
52187;DHT22;38161;53.020;6.598;2023-03-03T07:34:20;0.70;99.90
52187;DHT22;38161;53.020;6.598;2023-03-03T07:36:49;0.70;99.90
52187;DHT22;38161;53.020;6.598;2023-03-03T07:41:53;0.80;99.90
52187;DHT22;38161;53.020;6.598;2023-03-03T07:44:36;0.80;99.90
52187;DHT22;38161;53.020;6.598;2023-03-03T07:49:45;0.80;99.90
52187;DHT22;38161;53.020;6.598;2023-03-03T07:54:51;0.80;99.90
52187;DHT22;38161;53.020;6.598;2023-03-03T07:57:22;0.80;99.90
52187;DHT22;38161;53.020;6.598;2023-03-03T08:02:46;1.00;99.90
52187;DHT22;38161;53.020;6.598;2023-03-03T08:07:51;1.20;99.90
52187;DHT22;38161;53.020;6.598;2023-03-03T08:10:49;1.30;99.90
52187;DHT22;38161;53.020;6.598;2023-03-03T08:15:50;1.30;99.90
52187;DHT22;38161;53.020;6.598;2023-03-03T08:18:34;1.30;99.90
52187;DHT22;38161;53.020;6.598;2023-03-03T08:23:29;1.50;99.90
52187;DHT22;38161;53.020;6.598;2023-03-03T08:25:55;1.60;99.90
52187;DHT22;38161;53.020;6.598;2023-03-03T08:28:21;1.70;99.90
52187;DHT22;38161;53.020;6.598;2023-03-03T08:30:47;1.70;99.90
52187;DHT22;38161;53.020;6.598;2023-03-03T08:33:14;1.90;99.90
52187;DHT22;38161;53.020;6.598;2023-03-03T08:35:40;1.80;99.90
52187;DHT22;38161;53.020;6.598;2023-03-03T08:38:06;1.80;99.90
52187;DHT22;38161;53.020;6.598;2023-03-03T08:40:32;1.90;99.90
52187;DHT22;38161;53.020;6.598;2023-03-03T08:42:58;1.80;99.90
52187;DHT22;38161;53.020;6.598;2023-03-03T08:45:25;1.80;99.90
52187;DHT22;38161;53.020;6.598;2023-03-03T08:47:52;1.70;99.90
52187;DHT22;38161;53.020;6.598;2023-03-03T08:50:21;1.90;99.90
52187;DHT22;38161;53.020;6.598;2023-03-03T08:52:49;1.70;99.90
52187;DHT22;38161;53.020;6.598;2023-03-03T08:55:15;1.80;99.90
52187;DHT22;38161;53.020;6.598;2023-03-03T08:57:41;1.80;99.90
52187;DHT22;38161;53.020;6.598;2023-03-03T09:00:09;1.90;99.90
52187;DHT22;38161;53.020;6.598;2023-03-03T09:02:35;1.90;99.90
52187;DHT22;38161;53.020;6.598;2023-03-03T09:05:02;2.20;99.90
52187;DHT22;38161;53.020;6.598;2023-03-03T09:07:29;2.00;99.90
52187;DHT22;38161;53.020;6.598;2023-03-03T09:09:54;2.10;99.90
52187;DHT22;38161;53.020;6.598;2023-03-03T09:12:34;2.10;99.90
52187;DHT22;38161;53.020;6.598;2023-03-03T09:15:14;2.20;99.90
52187;DHT22;38161;53.020;6.598;2023-03-03T09:17:41;2.30;99.90
52187;DHT22;38161;53.020;6.598;2023-03-03T09:20:24;2.20;99.90
52187;DHT22;38161;53.020;6.598;2023-03-03T09:22:52;2.30;99.90
52187;DHT22;38161;53.020;6.598;2023-03-03T09:25:32;2.30;99.90
52187;DHT22;38161;53.020;6.598;2023-03-03T09:27:59;2.40;99.90
52187;DHT22;38161;53.020;6.598;2023-03-03T09:30:47;2.40;99.90
52187;DHT22;38161;53.020;6.598;2023-03-03T09:35:46;2.60;99.90
52187;DHT22;38161;53.020;6.598;2023-03-03T09:38:27;2.60;99.90
52187;DHT22;38161;53.020;6.598;2023-03-03T09:46:32;2.80;99.90
52187;DHT22;38161;53.020;6.598;2023-03-03T09:51:56;2.90;99.90
52187;DHT22;38161;53.020;6.598;2023-03-03T09:55:02;3.00;99.90
52187;DHT22;38161;53.020;6.598;2023-03-03T09:57:56;3.00;99.90
52187;DHT22;38161;53.020;6.598;2023-03-03T10:00:37;3.10;99.90
52187;DHT22;38161;53.020;6.598;2023-03-03T10:03:31;3.20;99.90
52187;DHT22;38161;53.020;6.598;2023-03-03T10:09:36;3.30;99.90
52187;DHT22;38161;53.020;6.598;2023-03-03T10:20:51;3.70;99.90
52187;DHT22;38161;53.020;6.598;2023-03-03T10:22:54;3.80;99.90
52187;DHT22;38161;53.020;6.598;2023-03-03T10:28:18;4.20;99.90
52187;DHT22;38161;53.020;6.598;2023-03-03T10:36:51;4.70;99.90
52187;DHT22;38161;53.020;6.598;2023-03-03T10:39:35;4.90;99.90
52187;DHT22;38161;53.020;6.598;2023-03-03T10:50:49;5.50;99.90
52187;DHT22;38161;53.020;6.598;2023-03-03T11:01:55;6.20;99.90
52187;DHT22;38161;53.020;6.598;2023-03-03T11:10:23;6.80;99.90
52187;DHT22;38161;53.020;6.598;2023-03-03T11:13:17;6.90;99.90
52187;DHT22;38161;53.020;6.598;2023-03-03T11:18:50;7.00;99.90
52187;DHT22;38161;53.020;6.598;2023-03-03T11:21:34;7.10;99.90
52187;DHT22;38161;53.020;6.598;2023-03-03T11:33:30;7.40;99.90
52187;DHT22;38161;53.020;6.598;2023-03-03T11:38:59;7.60;99.90
52187;DHT22;38161;53.020;6.598;2023-03-03T11:49:42;7.80;99.90
52187;DHT22;38161;53.020;6.598;2023-03-03T11:55:18;8.20;99.90
52187;DHT22;38161;53.020;6.598;2023-03-03T11:57:51;8.30;99.90
52187;DHT22;38161;53.020;6.598;2023-03-03T12:03:02;8.40;99.90
52187;DHT22;38161;53.020;6.598;2023-03-03T12:06:20;8.30;99.90
52187;DHT22;38161;53.020;6.598;2023-03-03T12:11:58;8.10;99.90
52187;DHT22;38161;53.020;6.598;2023-03-03T12:25:46;7.80;99.90
52187;DHT22;38161;53.020;6.598;2023-03-03T12:28:32;7.80;99.90
52187;DHT22;38161;53.020;6.598;2023-03-03T12:33:58;7.80;99.90
52187;DHT22;38161;53.020;6.598;2023-03-03T12:42:34;7.80;99.90
52187;DHT22;38161;53.020;6.598;2023-03-03T12:56:42;7.90;99.90
52187;DHT22;38161;53.020;6.598;2023-03-03T13:04:45;8.40;99.90
52187;DHT22;38161;53.020;6.598;2023-03-03T13:15:02;8.40;99.90
52187;DHT22;38161;53.020;6.598;2023-03-03T13:20:53;8.80;99.90
52187;DHT22;38161;53.020;6.598;2023-03-03T13:26:28;8.70;99.90
52187;DHT22;38161;53.020;6.598;2023-03-03T13:29:29;9.10;99.90
52187;DHT22;38161;53.020;6.598;2023-03-03T13:32:27;9.50;99.90
52187;DHT22;38161;53.020;6.598;2023-03-03T13:37:46;9.80;99.90
52187;DHT22;38161;53.020;6.598;2023-03-03T13:40:19;9.70;99.90
52187;DHT22;38161;53.020;6.598;2023-03-03T13:42:58;9.70;99.90
52187;DHT22;38161;53.020;6.598;2023-03-03T13:54:17;9.40;99.90
52187;DHT22;38161;53.020;6.598;2023-03-03T14:05:13;9.20;99.90
52187;DHT22;38161;53.020;6.598;2023-03-03T14:07:42;9.10;99.90
52187;DHT22;38161;53.020;6.598;2023-03-03T14:10:20;9.10;99.90
52187;DHT22;38161;53.020;6.598;2023-03-03T14:18:29;8.60;99.90
52187;DHT22;38161;53.020;6.598;2023-03-03T14:21:12;8.60;99.90
52187;DHT22;38161;53.020;6.598;2023-03-03T14:24:15;8.60;99.90
52187;DHT22;38161;53.020;6.598;2023-03-03T14:27:13;8.50;99.90
52187;DHT22;38161;53.020;6.598;2023-03-03T14:29:45;8.60;99.90
52187;DHT22;38161;53.020;6.598;2023-03-03T14:32:24;8.60;99.90
52187;DHT22;38161;53.020;6.598;2023-03-03T14:34:58;8.50;99.90
52187;DHT22;38161;53.020;6.598;2023-03-03T14:37:28;8.40;99.90
52187;DHT22;38161;53.020;6.598;2023-03-03T14:40:19;8.40;99.90
52187;DHT22;38161;53.020;6.598;2023-03-03T14:42:54;8.20;99.90
52187;DHT22;38161;53.020;6.598;2023-03-03T14:45:40;8.20;99.90
52187;DHT22;38161;53.020;6.598;2023-03-03T14:48:22;8.20;99.90
52187;DHT22;38161;53.020;6.598;2023-03-03T14:50:51;8.20;99.90
52187;DHT22;38161;53.020;6.598;2023-03-03T14:55:49;8.10;99.90
52187;DHT22;38161;53.020;6.598;2023-03-03T14:58:39;8.00;99.90
52187;DHT22;38161;53.020;6.598;2023-03-03T15:03:47;8.00;99.90
52187;DHT22;38161;53.020;6.598;2023-03-03T15:06:32;7.90;99.90
52187;DHT22;38161;53.020;6.598;2023-03-03T15:09:28;7.90;99.90
52187;DHT22;38161;53.020;6.598;2023-03-03T15:11:59;7.80;99.90
52187;DHT22;38161;53.020;6.598;2023-03-03T15:14:41;7.70;99.90
52187;DHT22;38161;53.020;6.598;2023-03-03T15:17:23;7.70;99.90
52187;DHT22;38161;53.020;6.598;2023-03-03T15:25:43;7.60;99.90
52187;DHT22;38161;53.020;6.598;2023-03-03T15:30:46;7.50;99.90
52187;DHT22;38161;53.020;6.598;2023-03-03T15:33:37;7.40;99.90
52187;DHT22;38161;53.020;6.598;2023-03-03T15:36:39;7.40;99.90
52187;DHT22;38161;53.020;6.598;2023-03-03T15:42:02;7.30;99.90
52187;DHT22;38161;53.020;6.598;2023-03-03T15:50:42;7.20;99.90
52187;DHT22;38161;53.020;6.598;2023-03-03T15:56:03;7.10;99.90
52187;DHT22;38161;53.020;6.598;2023-03-03T15:59:07;7.10;99.90
52187;DHT22;38161;53.020;6.598;2023-03-03T16:04:25;7.00;99.90
52187;DHT22;38161;53.020;6.598;2023-03-03T16:07:21;7.00;99.90
52187;DHT22;38161;53.020;6.598;2023-03-03T16:10:06;6.90;99.90
52187;DHT22;38161;53.020;6.598;2023-03-03T16:18:48;6.80;99.90
52187;DHT22;38161;53.020;6.598;2023-03-03T16:24:25;6.80;99.90
52187;DHT22;38161;53.020;6.598;2023-03-03T16:27:11;6.80;99.90
52187;DHT22;38161;53.020;6.598;2023-03-03T16:32:57;6.80;99.90
52187;DHT22;38161;53.020;6.598;2023-03-03T16:35:38;6.70;99.90
52187;DHT22;38161;53.020;6.598;2023-03-03T16:38:23;6.70;99.90
52187;DHT22;38161;53.020;6.598;2023-03-03T16:41:00;6.70;99.90
52187;DHT22;38161;53.020;6.598;2023-03-03T16:43:45;6.70;99.90
52187;DHT22;38161;53.020;6.598;2023-03-03T16:46:37;6.60;99.90
52187;DHT22;38161;53.020;6.598;2023-03-03T16:54:15;6.60;99.90
52187;DHT22;38161;53.020;6.598;2023-03-03T17:00:02;6.60;99.90
52187;DHT22;38161;53.020;6.598;2023-03-03T17:10:48;6.50;99.90
52187;DHT22;38161;53.020;6.598;2023-03-03T17:26:52;6.40;99.90
52187;DHT22;38161;53.020;6.598;2023-03-03T17:31:49;6.40;99.90
52187;DHT22;38161;53.020;6.598;2023-03-03T17:34:28;6.30;99.90
52187;DHT22;38161;53.020;6.598;2023-03-03T17:45:13;6.30;99.90
52187;DHT22;38161;53.020;6.598;2023-03-03T17:50:53;6.20;99.90
52187;DHT22;38161;53.020;6.598;2023-03-03T17:57:47;6.20;99.90
52187;DHT22;38161;53.020;6.598;2023-03-03T17:59:57;6.20;99.90
52187;DHT22;38161;53.020;6.598;2023-03-03T18:19:11;6.10;99.90
52187;DHT22;38161;53.020;6.598;2023-03-03T18:35:34;6.00;99.90
52187;DHT22;38161;53.020;6.598;2023-03-03T18:48:57;6.00;99.90
52187;DHT22;38161;53.020;6.598;2023-03-03T19:12:58;5.90;99.90
52187;DHT22;38161;53.020;6.598;2023-03-03T19:18:25;5.90;99.90
52187;DHT22;38161;53.020;6.598;2023-03-03T19:21:02;5.90;99.90
52187;DHT22;38161;53.020;6.598;2023-03-03T19:31:46;5.80;99.90
52187;DHT22;38161;53.020;6.598;2023-03-03T19:40:10;5.80;99.90
52187;DHT22;38161;53.020;6.598;2023-03-03T19:48:11;5.80;99.90
52187;DHT22;38161;53.020;6.598;2023-03-03T19:51:21;5.80;99.90
52187;DHT22;38161;53.020;6.598;2023-03-03T19:53:57;5.70;99.90
52187;DHT22;38161;53.020;6.598;2023-03-03T19:56:41;5.80;99.90
52187;DHT22;38161;53.020;6.598;2023-03-03T19:59:45;5.80;99.90
52187;DHT22;38161;53.020;6.598;2023-03-03T20:07:27;5.70;99.90
52187;DHT22;38161;53.020;6.598;2023-03-03T20:10:52;5.70;99.90
52187;DHT22;38161;53.020;6.598;2023-03-03T20:16:01;5.70;99.90
52187;DHT22;38161;53.020;6.598;2023-03-03T20:32:14;5.70;99.90
52187;DHT22;38161;53.020;6.598;2023-03-03T20:45:55;5.60;99.90
52187;DHT22;38161;53.020;6.598;2023-03-03T21:02:47;5.60;99.90
52187;DHT22;38161;53.020;6.598;2023-03-03T21:05:20;5.60;99.90
52187;DHT22;38161;53.020;6.598;2023-03-03T21:07:55;5.60;99.90
52187;DHT22;38161;53.020;6.598;2023-03-03T21:10:24;5.60;99.90
52187;DHT22;38161;53.020;6.598;2023-03-03T21:12:55;5.60;99.90
52187;DHT22;38161;53.020;6.598;2023-03-03T21:15:30;5.60;99.90
52187;DHT22;38161;53.020;6.598;2023-03-03T21:17:58;5.60;99.90
52187;DHT22;38161;53.020;6.598;2023-03-03T21:20:30;5.60;99.90
52187;DHT22;38161;53.020;6.598;2023-03-03T21:22:57;5.60;99.90
52187;DHT22;38161;53.020;6.598;2023-03-03T21:33:52;5.60;99.90
52187;DHT22;38161;53.020;6.598;2023-03-03T21:36:22;5.60;99.90
52187;DHT22;38161;53.020;6.598;2023-03-03T21:38:50;5.60;99.90
52187;DHT22;38161;53.020;6.598;2023-03-03T21:41:16;5.60;99.90
52187;DHT22;38161;53.020;6.598;2023-03-03T21:43:48;5.60;99.90
52187;DHT22;38161;53.020;6.598;2023-03-03T21:46:22;5.60;99.90
52187;DHT22;38161;53.020;6.598;2023-03-03T21:48:52;5.60;99.90
52187;DHT22;38161;53.020;6.598;2023-03-03T21:51:18;5.60;99.90
52187;DHT22;38161;53.020;6.598;2023-03-03T21:53:45;5.60;99.90
52187;DHT22;38161;53.020;6.598;2023-03-03T21:56:11;5.60;99.90
52187;DHT22;38161;53.020;6.598;2023-03-03T21:58:41;5.60;99.90
52187;DHT22;38161;53.020;6.598;2023-03-03T22:01:07;5.60;99.90
52187;DHT22;38161;53.020;6.598;2023-03-03T22:03:34;5.60;99.90
52187;DHT22;38161;53.020;6.598;2023-03-03T22:06:00;5.60;99.90
52187;DHT22;38161;53.020;6.598;2023-03-03T22:08:27;5.60;99.90
52187;DHT22;38161;53.020;6.598;2023-03-03T22:10:53;5.60;99.90
52187;DHT22;38161;53.020;6.598;2023-03-03T22:13:25;5.60;99.90
52187;DHT22;38161;53.020;6.598;2023-03-03T22:15:51;5.60;99.90
52187;DHT22;38161;53.020;6.598;2023-03-03T22:18:18;5.60;99.90
52187;DHT22;38161;53.020;6.598;2023-03-03T22:20:45;5.60;99.90
52187;DHT22;38161;53.020;6.598;2023-03-03T22:23:12;5.60;99.90
52187;DHT22;38161;53.020;6.598;2023-03-03T22:25:38;5.60;99.90
52187;DHT22;38161;53.020;6.598;2023-03-03T22:28:04;5.60;99.90
52187;DHT22;38161;53.020;6.598;2023-03-03T22:30:30;5.60;99.90
52187;DHT22;38161;53.020;6.598;2023-03-03T22:32:56;5.60;99.90
52187;DHT22;38161;53.020;6.598;2023-03-03T22:35:21;5.60;99.90
52187;DHT22;38161;53.020;6.598;2023-03-03T22:37:47;5.50;99.90
52187;DHT22;38161;53.020;6.598;2023-03-03T22:40:13;5.50;99.90
52187;DHT22;38161;53.020;6.598;2023-03-03T22:42:39;5.50;99.90
52187;DHT22;38161;53.020;6.598;2023-03-03T22:45:05;5.50;99.90
52187;DHT22;38161;53.020;6.598;2023-03-03T22:47:30;5.50;99.90
52187;DHT22;38161;53.020;6.598;2023-03-03T22:49:59;5.50;99.90
52187;DHT22;38161;53.020;6.598;2023-03-03T22:52:25;5.50;99.90
52187;DHT22;38161;53.020;6.598;2023-03-03T22:54:51;5.50;99.90
52187;DHT22;38161;53.020;6.598;2023-03-03T22:57:16;5.50;99.90
52187;DHT22;38161;53.020;6.598;2023-03-03T22:59:42;5.70;99.90
52187;DHT22;38161;53.020;6.598;2023-03-03T23:02:08;5.50;99.90
52187;DHT22;38161;53.020;6.598;2023-03-03T23:04:34;5.50;99.90
52187;DHT22;38161;53.020;6.598;2023-03-03T23:07:00;5.50;99.90
52187;DHT22;38161;53.020;6.598;2023-03-03T23:09:25;5.50;99.90
52187;DHT22;38161;53.020;6.598;2023-03-03T23:11:51;5.50;99.90
52187;DHT22;38161;53.020;6.598;2023-03-03T23:14:17;5.50;99.90
52187;DHT22;38161;53.020;6.598;2023-03-03T23:16:43;5.50;99.90
52187;DHT22;38161;53.020;6.598;2023-03-03T23:19:10;5.50;99.90
52187;DHT22;38161;53.020;6.598;2023-03-03T23:21:35;5.50;99.90
52187;DHT22;38161;53.020;6.598;2023-03-03T23:24:01;5.50;99.90